OICS  Sanandaj Airport

Add Bookmark

Iran

Status IATA
Operational SDG
Latitude Longitude
35° 14' 45" N 47° 0' 33" E
35.245899 47.009201
Local (DST + 5) UTC (GMT + 4)
Aug 29, 2014 02:27 Aug 29, 2014 09:57
Sunrise-Sunset Local UTC
Begin Civil Twilight 06:24 01:54
Sunrise 06:51 02:21
Sunset 07:54 15:24
End Civil Twilight 08:20 15:50

Current Weather

METAR Observed VFR
OICS 290900Z 03002KT 9999 SCT040 36/M03 Q1015 Fri, Aug 29, 2014 @ 09:00 UTC
(57 Minutes ago)
Visual Flight Rules
Wind Visibility Clouds Conditions
030° at 2 knots (4 kph) 10 km or more
  • Scattered at 4,000' AGL
  • No significant weather
Temperatures Readings Precipitation
Current Temp 36°C (97°F)
Dewpoint -3°C (27°F)
Humidity 8%
Altimeter 29.97"Hg
Sea Level Pressure 1015mb
Field Elevation 4504.59'
None Recorded

Additional weather within a 185.2km radius of OICS

Map ICAO Location
OICC 100.9km S (172°)
OIGK 107.4km S (175°)
OIHH 146.5km E (106°)

24 Hour Weather History

Loading
-

24 Hour Weather Graphs

Loading
-

CheckWX.com is intended as a tool to help pilots better visualize weather data. It is not intended as a substitute for an official weather briefing obtained from a Flight Service Station. CheckWX.com does not meet the FAA requirements for an official pre-flight weather briefing. Therefore, it's important that pilots still call and obtain an official FSS pre-flight weather briefing.